sensor_id;sensor_type;location;lat;lon;timestamp;P1;durP1;ratioP1;P2;durP2;ratioP2
69305;SDS011;56427;51.580;4.656;2023-02-15T00:01:04;69.37;;;31.50;;
69305;SDS011;56427;51.580;4.656;2023-02-15T00:03:33;66.20;;;30.50;;
69305;SDS011;56427;51.580;4.656;2023-02-15T00:05:58;57.83;;;29.07;;
69305;SDS011;56427;51.580;4.656;2023-02-15T00:08:24;57.97;;;28.23;;
69305;SDS011;56427;51.580;4.656;2023-02-15T00:10:49;67.67;;;30.53;;
69305;SDS011;56427;51.580;4.656;2023-02-15T00:13:14;67.95;;;31.20;;
69305;SDS011;56427;51.580;4.656;2023-02-15T00:15:39;69.53;;;30.83;;
69305;SDS011;56427;51.580;4.656;2023-02-15T00:18:05;80.83;;;33.77;;
69305;SDS011;56427;51.580;4.656;2023-02-15T00:20:30;85.97;;;36.60;;
69305;SDS011;56427;51.580;4.656;2023-02-15T00:22:56;98.73;;;40.93;;
69305;SDS011;56427;51.580;4.656;2023-02-15T00:25:21;89.23;;;38.63;;
69305;SDS011;56427;51.580;4.656;2023-02-15T00:27:46;115.40;;;44.70;;
69305;SDS011;56427;51.580;4.656;2023-02-15T00:30:12;97.60;;;39.80;;
69305;SDS011;56427;51.580;4.656;2023-02-15T00:32:37;86.35;;;36.55;;
69305;SDS011;56427;51.580;4.656;2023-02-15T00:35:03;88.60;;;37.13;;
69305;SDS011;56427;51.580;4.656;2023-02-15T00:37:28;114.43;;;43.90;;
69305;SDS011;56427;51.580;4.656;2023-02-15T00:39:54;94.38;;;38.40;;
69305;SDS011;56427;51.580;4.656;2023-02-15T00:42:19;110.07;;;43.57;;
69305;SDS011;56427;51.580;4.656;2023-02-15T00:44:44;99.23;;;39.83;;
69305;SDS011;56427;51.580;4.656;2023-02-15T00:47:09;156.53;;;54.73;;
69305;SDS011;56427;51.580;4.656;2023-02-15T00:49:35;123.53;;;46.83;;
69305;SDS011;56427;51.580;4.656;2023-02-15T00:52:00;77.33;;;33.70;;
69305;SDS011;56427;51.580;4.656;2023-02-15T00:54:25;70.03;;;31.83;;
69305;SDS011;56427;51.580;4.656;2023-02-15T00:56:51;70.23;;;33.10;;
69305;SDS011;56427;51.580;4.656;2023-02-15T00:59:16;80.13;;;34.33;;
69305;SDS011;56427;51.580;4.656;2023-02-15T01:01:41;63.30;;;30.30;;
69305;SDS011;56427;51.580;4.656;2023-02-15T01:04:07;79.87;;;33.53;;
69305;SDS011;56427;51.580;4.656;2023-02-15T01:06:32;88.33;;;36.27;;
69305;SDS011;56427;51.580;4.656;2023-02-15T01:08:57;74.20;;;30.97;;
69305;SDS011;56427;51.580;4.656;2023-02-15T01:11:23;66.37;;;28.17;;
69305;SDS011;56427;51.580;4.656;2023-02-15T01:13:49;63.83;;;29.30;;
69305;SDS011;56427;51.580;4.656;2023-02-15T01:16:16;60.88;;;28.52;;
69305;SDS011;56427;51.580;4.656;2023-02-15T01:18:41;64.55;;;29.58;;
69305;SDS011;56427;51.580;4.656;2023-02-15T01:21:14;73.73;;;32.70;;
69305;SDS011;56427;51.580;4.656;2023-02-15T01:23:46;63.07;;;30.83;;
69305;SDS011;56427;51.580;4.656;2023-02-15T01:26:12;66.18;;;30.27;;
69305;SDS011;56427;51.580;4.656;2023-02-15T01:28:38;64.40;;;29.38;;
69305;SDS011;56427;51.580;4.656;2023-02-15T01:31:10;74.53;;;30.60;;
69305;SDS011;56427;51.580;4.656;2023-02-15T01:33:38;67.93;;;29.23;;
69305;SDS011;56427;51.580;4.656;2023-02-15T01:36:04;72.57;;;30.00;;
69305;SDS011;56427;51.580;4.656;2023-02-15T01:38:29;63.28;;;29.90;;
69305;SDS011;56427;51.580;4.656;2023-02-15T01:40:55;70.50;;;30.47;;
69305;SDS011;56427;51.580;4.656;2023-02-15T01:43:41;67.00;;;30.48;;
69305;SDS011;56427;51.580;4.656;2023-02-15T01:46:07;70.80;;;31.08;;
69305;SDS011;56427;51.580;4.656;2023-02-15T01:48:34;72.63;;;32.70;;
69305;SDS011;56427;51.580;4.656;2023-02-15T01:51:08;78.23;;;32.63;;
69305;SDS011;56427;51.580;4.656;2023-02-15T01:53:34;74.03;;;32.33;;
69305;SDS011;56427;51.580;4.656;2023-02-15T01:56:29;85.40;;;33.33;;
69305;SDS011;56427;51.580;4.656;2023-02-15T01:58:56;66.93;;;29.48;;
69305;SDS011;56427;51.580;4.656;2023-02-15T02:01:28;63.00;;;28.87;;
69305;SDS011;56427;51.580;4.656;2023-02-15T02:06:56;70.40;;;30.75;;
69305;SDS011;56427;51.580;4.656;2023-02-15T02:09:23;67.95;;;29.15;;
69305;SDS011;56427;51.580;4.656;2023-02-15T02:11:49;67.33;;;28.90;;
69305;SDS011;56427;51.580;4.656;2023-02-15T02:14:15;72.95;;;30.02;;
69305;SDS011;56427;51.580;4.656;2023-02-15T02:16:51;61.90;;;27.70;;
69305;SDS011;56427;51.580;4.656;2023-02-15T02:41:26;77.90;;;32.10;;
69305;SDS011;56427;51.580;4.656;2023-02-15T02:44:04;74.47;;;33.17;;
69305;SDS011;56427;51.580;4.656;2023-02-15T02:49:03;80.50;;;32.43;;
69305;SDS011;56427;51.580;4.656;2023-02-15T02:51:29;66.83;;;31.27;;
69305;SDS011;56427;51.580;4.656;2023-02-15T02:53:55;74.55;;;31.38;;
69305;SDS011;56427;51.580;4.656;2023-02-15T02:56:28;81.33;;;33.03;;
69305;SDS011;56427;51.580;4.656;2023-02-15T02:59:40;74.72;;;29.45;;
69305;SDS011;56427;51.580;4.656;2023-02-15T03:01:59;70.65;;;29.08;;
69305;SDS011;56427;51.580;4.656;2023-02-15T03:04:41;66.53;;;28.77;;
69305;SDS011;56427;51.580;4.656;2023-02-15T03:07:13;65.63;;;29.33;;
69305;SDS011;56427;51.580;4.656;2023-02-15T03:09:47;71.00;;;29.20;;
69305;SDS011;56427;51.580;4.656;2023-02-15T03:12:17;69.72;;;29.17;;
69305;SDS011;56427;51.580;4.656;2023-02-15T03:14:49;70.57;;;29.58;;
69305;SDS011;56427;51.580;4.656;2023-02-15T03:17:17;63.58;;;27.88;;
69305;SDS011;56427;51.580;4.656;2023-02-15T03:19:47;62.13;;;28.67;;
69305;SDS011;56427;51.580;4.656;2023-02-15T03:24:59;62.90;;;27.52;;
69305;SDS011;56427;51.580;4.656;2023-02-15T03:27:34;69.38;;;29.85;;
69305;SDS011;56427;51.580;4.656;2023-02-15T03:30:04;66.18;;;28.27;;
69305;SDS011;56427;51.580;4.656;2023-02-15T03:32:32;68.60;;;29.08;;
69305;SDS011;56427;51.580;4.656;2023-02-15T03:34:59;73.23;;;31.70;;
69305;SDS011;56427;51.580;4.656;2023-02-15T03:37:26;73.20;;;29.60;;
69305;SDS011;56427;51.580;4.656;2023-02-15T03:45:31;69.90;;;29.98;;
69305;SDS011;56427;51.580;4.656;2023-02-15T03:47:58;77.87;;;31.43;;
69305;SDS011;56427;51.580;4.656;2023-02-15T03:50:27;83.82;;;32.58;;
69305;SDS011;56427;51.580;4.656;2023-02-15T03:53:15;79.80;;;32.17;;
69305;SDS011;56427;51.580;4.656;2023-02-15T03:55:53;82.93;;;33.90;;
69305;SDS011;56427;51.580;4.656;2023-02-15T03:58:21;81.65;;;33.47;;
69305;SDS011;56427;51.580;4.656;2023-02-15T04:01:11;89.20;;;36.17;;
69305;SDS011;56427;51.580;4.656;2023-02-15T04:04:07;82.85;;;33.67;;
69305;SDS011;56427;51.580;4.656;2023-02-15T04:06:39;85.88;;;34.55;;
69305;SDS011;56427;51.580;4.656;2023-02-15T04:09:05;93.90;;;37.20;;
69305;SDS011;56427;51.580;4.656;2023-02-15T04:11:49;103.13;;;39.47;;
69305;SDS011;56427;51.580;4.656;2023-02-15T04:14:14;86.53;;;35.53;;
69305;SDS011;56427;51.580;4.656;2023-02-15T04:16:58;84.07;;;34.88;;
69305;SDS011;56427;51.580;4.656;2023-02-15T04:19:23;80.90;;;36.67;;
69305;SDS011;56427;51.580;4.656;2023-02-15T04:22:07;73.78;;;33.45;;
69305;SDS011;56427;51.580;4.656;2023-02-15T04:24:51;78.90;;;32.35;;
69305;SDS011;56427;51.580;4.656;2023-02-15T04:27:35;78.90;;;32.90;;
69305;SDS011;56427;51.580;4.656;2023-02-15T04:30:01;74.82;;;31.52;;
69305;SDS011;56427;51.580;4.656;2023-02-15T04:32:27;70.63;;;31.80;;
69305;SDS011;56427;51.580;4.656;2023-02-15T04:34:52;80.60;;;34.57;;
69305;SDS011;56427;51.580;4.656;2023-02-15T04:37:17;71.63;;;33.80;;
69305;SDS011;56427;51.580;4.656;2023-02-15T04:39:43;88.87;;;34.90;;
69305;SDS011;56427;51.580;4.656;2023-02-15T04:42:08;82.27;;;34.43;;
69305;SDS011;56427;51.580;4.656;2023-02-15T04:44:33;74.83;;;35.63;;
69305;SDS011;56427;51.580;4.656;2023-02-15T04:46:59;79.40;;;34.27;;
69305;SDS011;56427;51.580;4.656;2023-02-15T04:49:24;80.07;;;33.83;;
69305;SDS011;56427;51.580;4.656;2023-02-15T04:51:49;87.90;;;37.58;;
69305;SDS011;56427;51.580;4.656;2023-02-15T04:54:15;86.63;;;35.10;;
69305;SDS011;56427;51.580;4.656;2023-02-15T04:56:40;80.45;;;34.95;;
69305;SDS011;56427;51.580;4.656;2023-02-15T04:59:05;104.35;;;40.03;;
69305;SDS011;56427;51.580;4.656;2023-02-15T05:01:31;100.23;;;38.13;;
69305;SDS011;56427;51.580;4.656;2023-02-15T05:03:56;86.17;;;34.57;;
69305;SDS011;56427;51.580;4.656;2023-02-15T05:06:22;92.27;;;38.50;;
69305;SDS011;56427;51.580;4.656;2023-02-15T05:08:47;98.35;;;37.33;;
69305;SDS011;56427;51.580;4.656;2023-02-15T05:11:13;84.37;;;36.27;;
69305;SDS011;56427;51.580;4.656;2023-02-15T05:13:38;79.13;;;34.37;;
69305;SDS011;56427;51.580;4.656;2023-02-15T05:16:04;77.68;;;34.63;;
69305;SDS011;56427;51.580;4.656;2023-02-15T05:18:29;77.00;;;31.10;;
69305;SDS011;56427;51.580;4.656;2023-02-15T05:20:54;78.47;;;32.67;;
69305;SDS011;56427;51.580;4.656;2023-02-15T05:23:20;84.80;;;34.30;;
69305;SDS011;56427;51.580;4.656;2023-02-15T05:25:46;86.67;;;36.40;;
69305;SDS011;56427;51.580;4.656;2023-02-15T05:28:31;82.95;;;33.60;;
69305;SDS011;56427;51.580;4.656;2023-02-15T05:33:37;88.07;;;36.17;;
69305;SDS011;56427;51.580;4.656;2023-02-15T05:36:03;77.93;;;35.75;;
69305;SDS011;56427;51.580;4.656;2023-02-15T05:38:29;83.07;;;35.42;;
69305;SDS011;56427;51.580;4.656;2023-02-15T05:40:55;95.38;;;39.88;;
69305;SDS011;56427;51.580;4.656;2023-02-15T05:43:20;101.77;;;39.80;;
69305;SDS011;56427;51.580;4.656;2023-02-15T05:45:48;89.40;;;39.00;;
69305;SDS011;56427;51.580;4.656;2023-02-15T05:48:15;96.80;;;40.27;;
69305;SDS011;56427;51.580;4.656;2023-02-15T05:50:41;93.72;;;40.45;;
69305;SDS011;56427;51.580;4.656;2023-02-15T05:53:07;96.78;;;39.65;;
69305;SDS011;56427;51.580;4.656;2023-02-15T05:55:32;102.80;;;40.60;;
69305;SDS011;56427;51.580;4.656;2023-02-15T05:57:58;91.77;;;36.50;;
69305;SDS011;56427;51.580;4.656;2023-02-15T06:00:23;98.10;;;38.63;;
69305;SDS011;56427;51.580;4.656;2023-02-15T06:02:50;95.90;;;37.72;;
69305;SDS011;56427;51.580;4.656;2023-02-15T06:05:15;101.93;;;37.33;;
69305;SDS011;56427;51.580;4.656;2023-02-15T06:07:44;85.75;;;38.30;;
69305;SDS011;56427;51.580;4.656;2023-02-15T06:10:09;89.37;;;37.63;;
69305;SDS011;56427;51.580;4.656;2023-02-15T06:12:35;94.72;;;38.75;;
69305;SDS011;56427;51.580;4.656;2023-02-15T06:15:00;90.03;;;38.57;;
69305;SDS011;56427;51.580;4.656;2023-02-15T06:17:26;87.80;;;39.93;;
69305;SDS011;56427;51.580;4.656;2023-02-15T06:19:51;97.67;;;39.60;;
69305;SDS011;56427;51.580;4.656;2023-02-15T06:22:16;94.37;;;40.10;;
69305;SDS011;56427;51.580;4.656;2023-02-15T06:24:42;103.50;;;40.77;;
69305;SDS011;56427;51.580;4.656;2023-02-15T06:27:08;107.05;;;41.35;;
69305;SDS011;56427;51.580;4.656;2023-02-15T06:29:35;98.27;;;40.83;;
69305;SDS011;56427;51.580;4.656;2023-02-15T06:32:00;104.20;;;39.92;;
69305;SDS011;56427;51.580;4.656;2023-02-15T06:34:26;96.03;;;40.43;;
69305;SDS011;56427;51.580;4.656;2023-02-15T06:36:51;86.40;;;37.97;;
69305;SDS011;56427;51.580;4.656;2023-02-15T06:39:17;97.18;;;38.33;;
69305;SDS011;56427;51.580;4.656;2023-02-15T06:41:42;109.57;;;44.30;;
69305;SDS011;56427;51.580;4.656;2023-02-15T06:44:08;97.03;;;41.73;;
69305;SDS011;56427;51.580;4.656;2023-02-15T06:46:33;95.20;;;42.37;;
69305;SDS011;56427;51.580;4.656;2023-02-15T06:48:59;94.30;;;41.10;;
69305;SDS011;56427;51.580;4.656;2023-02-15T06:51:25;114.00;;;45.30;;
69305;SDS011;56427;51.580;4.656;2023-02-15T06:53:50;96.03;;;42.47;;
69305;SDS011;56427;51.580;4.656;2023-02-15T06:56:16;84.17;;;39.27;;
69305;SDS011;56427;51.580;4.656;2023-02-15T06:58:41;91.97;;;39.10;;
69305;SDS011;56427;51.580;4.656;2023-02-15T07:01:07;89.57;;;41.47;;
69305;SDS011;56427;51.580;4.656;2023-02-15T07:03:34;88.25;;;38.83;;
69305;SDS011;56427;51.580;4.656;2023-02-15T07:06:00;88.47;;;40.87;;
69305;SDS011;56427;51.580;4.656;2023-02-15T07:08:27;102.53;;;42.33;;
69305;SDS011;56427;51.580;4.656;2023-02-15T07:10:53;94.30;;;41.67;;
69305;SDS011;56427;51.580;4.656;2023-02-15T07:13:20;87.45;;;41.38;;
69305;SDS011;56427;51.580;4.656;2023-02-15T07:15:45;84.68;;;38.80;;
69305;SDS011;56427;51.580;4.656;2023-02-15T07:18:12;81.75;;;36.78;;
69305;SDS011;56427;51.580;4.656;2023-02-15T07:20:38;88.57;;;38.10;;
69305;SDS011;56427;51.580;4.656;2023-02-15T07:23:06;80.95;;;36.45;;
69305;SDS011;56427;51.580;4.656;2023-02-15T07:25:31;79.90;;;34.30;;
69305;SDS011;56427;51.580;4.656;2023-02-15T07:27:57;80.07;;;35.87;;
69305;SDS011;56427;51.580;4.656;2023-02-15T07:30:26;84.93;;;36.42;;
69305;SDS011;56427;51.580;4.656;2023-02-15T07:32:55;80.93;;;35.33;;
69305;SDS011;56427;51.580;4.656;2023-02-15T07:35:46;82.40;;;34.80;;
69305;SDS011;56427;51.580;4.656;2023-02-15T07:38:12;75.95;;;35.17;;
69305;SDS011;56427;51.580;4.656;2023-02-15T07:40:38;76.10;;;34.73;;
69305;SDS011;56427;51.580;4.656;2023-02-15T07:43:04;79.50;;;34.93;;
69305;SDS011;56427;51.580;4.656;2023-02-15T07:45:29;68.65;;;34.90;;
69305;SDS011;56427;51.580;4.656;2023-02-15T07:47:54;76.87;;;35.70;;
69305;SDS011;56427;51.580;4.656;2023-02-15T07:50:20;73.67;;;34.63;;
69305;SDS011;56427;51.580;4.656;2023-02-15T07:52:45;61.50;;;30.53;;
69305;SDS011;56427;51.580;4.656;2023-02-15T07:55:10;62.13;;;29.77;;
69305;SDS011;56427;51.580;4.656;2023-02-15T07:57:41;66.45;;;32.60;;
69305;SDS011;56427;51.580;4.656;2023-02-15T08:00:07;64.15;;;31.42;;
69305;SDS011;56427;51.580;4.656;2023-02-15T08:02:32;68.10;;;31.97;;
69305;SDS011;56427;51.580;4.656;2023-02-15T08:04:58;60.25;;;30.08;;
69305;SDS011;56427;51.580;4.656;2023-02-15T08:07:24;54.57;;;30.23;;
69305;SDS011;56427;51.580;4.656;2023-02-15T08:09:49;64.40;;;30.10;;
69305;SDS011;56427;51.580;4.656;2023-02-15T08:12:14;64.80;;;32.37;;
69305;SDS011;56427;51.580;4.656;2023-02-15T08:14:40;70.67;;;32.30;;
69305;SDS011;56427;51.580;4.656;2023-02-15T08:17:05;59.10;;;30.73;;
69305;SDS011;56427;51.580;4.656;2023-02-15T08:19:31;58.88;;;31.40;;
69305;SDS011;56427;51.580;4.656;2023-02-15T08:22:04;57.03;;;28.50;;
69305;SDS011;56427;51.580;4.656;2023-02-15T08:24:32;62.58;;;31.88;;
69305;SDS011;56427;51.580;4.656;2023-02-15T08:26:59;59.63;;;31.67;;
69305;SDS011;56427;51.580;4.656;2023-02-15T08:29:27;62.60;;;31.83;;
69305;SDS011;56427;51.580;4.656;2023-02-15T08:31:55;67.63;;;33.30;;
69305;SDS011;56427;51.580;4.656;2023-02-15T08:34:24;60.60;;;31.67;;
69305;SDS011;56427;51.580;4.656;2023-02-15T08:36:49;59.97;;;30.17;;
69305;SDS011;56427;51.580;4.656;2023-02-15T08:39:15;63.25;;;31.88;;
69305;SDS011;56427;51.580;4.656;2023-02-15T08:41:42;62.17;;;32.27;;
69305;SDS011;56427;51.580;4.656;2023-02-15T08:44:09;56.83;;;29.13;;
69305;SDS011;56427;51.580;4.656;2023-02-15T08:46:39;63.78;;;30.65;;
69305;SDS011;56427;51.580;4.656;2023-02-15T08:49:06;55.40;;;31.25;;
69305;SDS011;56427;51.580;4.656;2023-02-15T08:51:34;54.28;;;29.02;;
69305;SDS011;56427;51.580;4.656;2023-02-15T08:54:02;58.88;;;30.65;;
69305;SDS011;56427;51.580;4.656;2023-02-15T08:56:31;57.50;;;29.42;;
69305;SDS011;56427;51.580;4.656;2023-02-15T08:58:59;54.50;;;27.55;;
69305;SDS011;56427;51.580;4.656;2023-02-15T09:01:25;53.65;;;28.88;;
69305;SDS011;56427;51.580;4.656;2023-02-15T09:03:57;57.53;;;30.47;;
69305;SDS011;56427;51.580;4.656;2023-02-15T09:06:24;56.28;;;28.83;;
69305;SDS011;56427;51.580;4.656;2023-02-15T09:08:50;54.88;;;28.88;;
69305;SDS011;56427;51.580;4.656;2023-02-15T09:13:47;54.58;;;29.33;;
69305;SDS011;56427;51.580;4.656;2023-02-15T09:16:13;48.70;;;28.35;;
69305;SDS011;56427;51.580;4.656;2023-02-15T09:18:41;58.25;;;30.45;;
69305;SDS011;56427;51.580;4.656;2023-02-15T09:21:08;55.83;;;29.00;;
69305;SDS011;56427;51.580;4.656;2023-02-15T09:23:38;57.25;;;31.27;;
69305;SDS011;56427;51.580;4.656;2023-02-15T09:26:06;51.85;;;29.55;;
69305;SDS011;56427;51.580;4.656;2023-02-15T09:28:34;54.58;;;29.38;;
69305;SDS011;56427;51.580;4.656;2023-02-15T09:31:15;52.55;;;29.98;;
69305;SDS011;56427;51.580;4.656;2023-02-15T09:33:45;46.53;;;28.58;;
69305;SDS011;56427;51.580;4.656;2023-02-15T09:36:16;50.25;;;28.48;;
69305;SDS011;56427;51.580;4.656;2023-02-15T09:38:58;53.53;;;28.35;;
69305;SDS011;56427;51.580;4.656;2023-02-15T09:44:42;51.72;;;27.75;;
69305;SDS011;56427;51.580;4.656;2023-02-15T09:55:24;53.20;;;28.85;;
69305;SDS011;56427;51.580;4.656;2023-02-15T10:00:55;47.95;;;26.55;;
69305;SDS011;56427;51.580;4.656;2023-02-15T10:04:19;51.83;;;27.42;;
69305;SDS011;56427;51.580;4.656;2023-02-15T10:06:54;51.75;;;27.92;;
69305;SDS011;56427;51.580;4.656;2023-02-15T10:12:40;54.93;;;28.17;;
69305;SDS011;56427;51.580;4.656;2023-02-15T10:15:27;48.00;;;26.33;;
69305;SDS011;56427;51.580;4.656;2023-02-15T10:18:12;47.72;;;26.73;;
69305;SDS011;56427;51.580;4.656;2023-02-15T10:20:55;50.28;;;27.45;;
69305;SDS011;56427;51.580;4.656;2023-02-15T10:26:42;46.40;;;25.77;;
69305;SDS011;56427;51.580;4.656;2023-02-15T10:28:54;48.85;;;27.05;;
69305;SDS011;56427;51.580;4.656;2023-02-15T10:31:25;49.60;;;27.05;;
69305;SDS011;56427;51.580;4.656;2023-02-15T10:34:03;51.13;;;27.20;;
69305;SDS011;56427;51.580;4.656;2023-02-15T10:39:21;49.77;;;26.03;;
69305;SDS011;56427;51.580;4.656;2023-02-15T10:42:10;48.38;;;25.25;;
69305;SDS011;56427;51.580;4.656;2023-02-15T10:44:56;46.72;;;25.92;;
69305;SDS011;56427;51.580;4.656;2023-02-15T10:47:30;44.03;;;25.80;;
69305;SDS011;56427;51.580;4.656;2023-02-15T10:50:35;49.92;;;26.90;;
69305;SDS011;56427;51.580;4.656;2023-02-15T10:53:20;48.63;;;25.53;;
69305;SDS011;56427;51.580;4.656;2023-02-15T11:06:12;49.65;;;26.08;;
69305;SDS011;56427;51.580;4.656;2023-02-15T11:08:50;46.47;;;26.23;;
69305;SDS011;56427;51.580;4.656;2023-02-15T11:11:21;50.58;;;25.40;;
69305;SDS011;56427;51.580;4.656;2023-02-15T11:13:53;47.50;;;26.35;;
69305;SDS011;56427;51.580;4.656;2023-02-15T11:16:24;44.38;;;25.58;;
69305;SDS011;56427;51.580;4.656;2023-02-15T11:18:56;49.35;;;25.17;;
69305;SDS011;56427;51.580;4.656;2023-02-15T11:21:31;47.60;;;26.27;;
69305;SDS011;56427;51.580;4.656;2023-02-15T11:26:43;48.00;;;25.55;;
69305;SDS011;56427;51.580;4.656;2023-02-15T11:29:31;46.83;;;26.02;;
69305;SDS011;56427;51.580;4.656;2023-02-15T11:32:03;45.75;;;26.17;;
69305;SDS011;56427;51.580;4.656;2023-02-15T11:34:45;45.73;;;26.37;;
69305;SDS011;56427;51.580;4.656;2023-02-15T11:37:23;47.17;;;26.13;;
69305;SDS011;56427;51.580;4.656;2023-02-15T11:39:53;46.38;;;24.50;;
69305;SDS011;56427;51.580;4.656;2023-02-15T11:42:20;44.28;;;25.10;;
69305;SDS011;56427;51.580;4.656;2023-02-15T11:45:04;44.97;;;24.60;;
69305;SDS011;56427;51.580;4.656;2023-02-15T11:47:42;48.83;;;25.43;;
69305;SDS011;56427;51.580;4.656;2023-02-15T11:50:14;47.72;;;24.92;;
69305;SDS011;56427;51.580;4.656;2023-02-15T11:52:42;44.50;;;24.23;;
69305;SDS011;56427;51.580;4.656;2023-02-15T11:55:14;45.10;;;24.77;;
69305;SDS011;56427;51.580;4.656;2023-02-15T11:57:47;45.63;;;24.97;;
69305;SDS011;56427;51.580;4.656;2023-02-15T12:00:35;45.85;;;25.27;;
69305;SDS011;56427;51.580;4.656;2023-02-15T12:03:20;40.45;;;23.42;;
69305;SDS011;56427;51.580;4.656;2023-02-15T12:05:53;49.25;;;25.75;;
69305;SDS011;56427;51.580;4.656;2023-02-15T12:08:24;46.25;;;24.27;;
69305;SDS011;56427;51.580;4.656;2023-02-15T12:10:53;44.37;;;24.47;;
69305;SDS011;56427;51.580;4.656;2023-02-15T12:13:25;45.25;;;24.55;;
69305;SDS011;56427;51.580;4.656;2023-02-15T12:15:51;46.83;;;25.90;;
69305;SDS011;56427;51.580;4.656;2023-02-15T12:18:33;46.83;;;25.27;;
69305;SDS011;56427;51.580;4.656;2023-02-15T12:21:03;43.53;;;24.85;;
69305;SDS011;56427;51.580;4.656;2023-02-15T12:23:33;51.50;;;25.85;;
69305;SDS011;56427;51.580;4.656;2023-02-15T12:26:04;53.00;;;25.40;;
69305;SDS011;56427;51.580;4.656;2023-02-15T12:28:34;43.72;;;24.77;;
69305;SDS011;56427;51.580;4.656;2023-02-15T12:31:00;50.80;;;24.60;;
69305;SDS011;56427;51.580;4.656;2023-02-15T12:33:30;40.85;;;24.88;;
69305;SDS011;56427;51.580;4.656;2023-02-15T12:36:18;41.33;;;24.13;;
69305;SDS011;56427;51.580;4.656;2023-02-15T12:41:48;46.53;;;25.23;;
69305;SDS011;56427;51.580;4.656;2023-02-15T12:44:33;42.88;;;22.80;;
69305;SDS011;56427;51.580;4.656;2023-02-15T12:49:36;45.07;;;23.93;;
69305;SDS011;56427;51.580;4.656;2023-02-15T12:54:43;45.47;;;24.25;;
69305;SDS011;56427;51.580;4.656;2023-02-15T12:57:13;46.25;;;25.08;;
69305;SDS011;56427;51.580;4.656;2023-02-15T12:59:48;44.45;;;23.60;;
69305;SDS011;56427;51.580;4.656;2023-02-15T13:02:19;44.93;;;25.13;;
69305;SDS011;56427;51.580;4.656;2023-02-15T13:05:05;48.55;;;24.08;;
69305;SDS011;56427;51.580;4.656;2023-02-15T13:07:48;41.25;;;22.95;;
69305;SDS011;56427;51.580;4.656;2023-02-15T13:10:22;44.33;;;24.75;;
69305;SDS011;56427;51.580;4.656;2023-02-15T13:12:49;48.65;;;24.77;;
69305;SDS011;56427;51.580;4.656;2023-02-15T13:15:26;47.37;;;24.17;;
69305;SDS011;56427;51.580;4.656;2023-02-15T13:17:56;48.72;;;24.90;;
69305;SDS011;56427;51.580;4.656;2023-02-15T13:20:22;46.25;;;25.17;;
69305;SDS011;56427;51.580;4.656;2023-02-15T13:22:48;45.58;;;24.25;;
69305;SDS011;56427;51.580;4.656;2023-02-15T13:25:27;44.10;;;23.88;;
69305;SDS011;56427;51.580;4.656;2023-02-15T13:27:57;43.87;;;24.43;;
69305;SDS011;56427;51.580;4.656;2023-02-15T13:30:28;44.67;;;25.05;;
69305;SDS011;56427;51.580;4.656;2023-02-15T13:33:02;49.60;;;23.83;;
69305;SDS011;56427;51.580;4.656;2023-02-15T13:35:33;45.10;;;24.23;;
69305;SDS011;56427;51.580;4.656;2023-02-15T13:40:58;49.70;;;23.70;;
69305;SDS011;56427;51.580;4.656;2023-02-15T13:52:17;42.45;;;22.58;;
69305;SDS011;56427;51.580;4.656;2023-02-15T14:00:25;41.53;;;22.98;;
69305;SDS011;56427;51.580;4.656;2023-02-15T14:06:19;46.83;;;23.02;;
69305;SDS011;56427;51.580;4.656;2023-02-15T14:09:08;47.60;;;24.43;;
69305;SDS011;56427;51.580;4.656;2023-02-15T14:17:02;44.13;;;22.70;;
69305;SDS011;56427;51.580;4.656;2023-02-15T14:22:40;43.10;;;22.97;;
69305;SDS011;56427;51.580;4.656;2023-02-15T14:25:25;43.10;;;23.77;;
69305;SDS011;56427;51.580;4.656;2023-02-15T14:30:37;41.97;;;24.02;;
69305;SDS011;56427;51.580;4.656;2023-02-15T14:33:07;45.97;;;25.27;;
69305;SDS011;56427;51.580;4.656;2023-02-15T14:35:39;45.70;;;24.73;;
69305;SDS011;56427;51.580;4.656;2023-02-15T14:38:17;46.35;;;25.88;;
69305;SDS011;56427;51.580;4.656;2023-02-15T14:40:56;47.05;;;25.15;;
69305;SDS011;56427;51.580;4.656;2023-02-15T14:52:08;44.15;;;25.23;;
69305;SDS011;56427;51.580;4.656;2023-02-15T15:02:26;42.30;;;23.02;;
69305;SDS011;56427;51.580;4.656;2023-02-15T15:07:54;44.57;;;24.20;;
69305;SDS011;56427;51.580;4.656;2023-02-15T15:12:55;41.30;;;23.40;;
69305;SDS011;56427;51.580;4.656;2023-02-15T15:18:03;47.72;;;24.30;;
69305;SDS011;56427;51.580;4.656;2023-02-15T15:25:48;40.60;;;21.33;;
69305;SDS011;56427;51.580;4.656;2023-02-15T15:30:57;48.33;;;24.48;;
69305;SDS011;56427;51.580;4.656;2023-02-15T15:33:45;41.30;;;22.73;;
69305;SDS011;56427;51.580;4.656;2023-02-15T15:36:47;42.80;;;21.63;;
69305;SDS011;56427;51.580;4.656;2023-02-15T15:48:25;40.05;;;23.20;;
69305;SDS011;56427;51.580;4.656;2023-02-15T15:51:06;48.88;;;23.85;;
69305;SDS011;56427;51.580;4.656;2023-02-15T15:53:43;43.03;;;23.37;;
69305;SDS011;56427;51.580;4.656;2023-02-15T15:56:15;42.53;;;23.67;;
69305;SDS011;56427;51.580;4.656;2023-02-15T15:58:53;41.80;;;22.13;;
69305;SDS011;56427;51.580;4.656;2023-02-15T16:01:29;44.50;;;22.92;;
69305;SDS011;56427;51.580;4.656;2023-02-15T16:03:57;50.05;;;24.13;;
69305;SDS011;56427;51.580;4.656;2023-02-15T16:06:27;47.17;;;23.73;;
69305;SDS011;56427;51.580;4.656;2023-02-15T16:08:56;45.70;;;22.98;;
69305;SDS011;56427;51.580;4.656;2023-02-15T16:11:22;51.37;;;24.27;;
69305;SDS011;56427;51.580;4.656;2023-02-15T16:13:50;45.80;;;24.83;;
69305;SDS011;56427;51.580;4.656;2023-02-15T16:16:22;46.05;;;25.02;;
69305;SDS011;56427;51.580;4.656;2023-02-15T16:18:50;44.75;;;24.85;;
69305;SDS011;56427;51.580;4.656;2023-02-15T16:21:18;51.63;;;24.08;;
69305;SDS011;56427;51.580;4.656;2023-02-15T16:29:16;44.77;;;24.40;;
69305;SDS011;56427;51.580;4.656;2023-02-15T16:31:43;42.90;;;24.10;;
69305;SDS011;56427;51.580;4.656;2023-02-15T16:34:20;44.97;;;24.23;;
69305;SDS011;56427;51.580;4.656;2023-02-15T16:36:46;45.37;;;24.07;;
69305;SDS011;56427;51.580;4.656;2023-02-15T16:39:17;49.50;;;24.53;;
69305;SDS011;56427;51.580;4.656;2023-02-15T16:41:44;43.17;;;24.25;;
69305;SDS011;56427;51.580;4.656;2023-02-15T16:44:14;47.92;;;24.05;;
69305;SDS011;56427;51.580;4.656;2023-02-15T16:46:43;41.93;;;22.90;;
69305;SDS011;56427;51.580;4.656;2023-02-15T16:49:18;46.95;;;25.02;;
69305;SDS011;56427;51.580;4.656;2023-02-15T16:51:53;44.60;;;25.17;;
69305;SDS011;56427;51.580;4.656;2023-02-15T16:54:22;49.13;;;24.85;;
69305;SDS011;56427;51.580;4.656;2023-02-15T16:56:49;43.83;;;24.52;;
69305;SDS011;56427;51.580;4.656;2023-02-15T17:00:00;42.57;;;23.20;;
69305;SDS011;56427;51.580;4.656;2023-02-15T17:02:10;49.63;;;25.48;;
69305;SDS011;56427;51.580;4.656;2023-02-15T17:04:41;44.22;;;23.13;;
69305;SDS011;56427;51.580;4.656;2023-02-15T17:07:17;44.63;;;23.17;;
69305;SDS011;56427;51.580;4.656;2023-02-15T17:17:55;51.97;;;25.83;;
69305;SDS011;56427;51.580;4.656;2023-02-15T17:20:34;51.35;;;23.58;;
69305;SDS011;56427;51.580;4.656;2023-02-15T17:23:03;47.40;;;24.77;;
69305;SDS011;56427;51.580;4.656;2023-02-15T17:25:35;43.40;;;23.77;;
69305;SDS011;56427;51.580;4.656;2023-02-15T17:28:04;46.53;;;24.75;;
69305;SDS011;56427;51.580;4.656;2023-02-15T17:30:40;48.15;;;25.50;;
69305;SDS011;56427;51.580;4.656;2023-02-15T17:33:05;51.60;;;25.30;;